sensor_id;sensor_type;location;lat;lon;timestamp;P1;durP1;ratioP1;P2;durP2;ratioP2
41881;SDS011;27562;47.524;12.404;2023-08-08T00:01:53;2.83;;;1.40;;
41881;SDS011;27562;47.524;12.404;2023-08-08T00:04:18;2.28;;;1.15;;
41881;SDS011;27562;47.524;12.404;2023-08-08T00:06:44;1.80;;;1.10;;
41881;SDS011;27562;47.524;12.404;2023-08-08T00:09:10;2.47;;;1.30;;
41881;SDS011;27562;47.524;12.404;2023-08-08T00:11:35;3.13;;;1.20;;
41881;SDS011;27562;47.524;12.404;2023-08-08T00:14:01;3.58;;;1.85;;
41881;SDS011;27562;47.524;12.404;2023-08-08T00:16:27;3.13;;;1.10;;
41881;SDS011;27562;47.524;12.404;2023-08-08T00:18:53;3.83;;;1.20;;
41881;SDS011;27562;47.524;12.404;2023-08-08T00:21:19;3.45;;;0.93;;
41881;SDS011;27562;47.524;12.404;2023-08-08T00:23:45;2.50;;;1.10;;
41881;SDS011;27562;47.524;12.404;2023-08-08T00:26:11;2.28;;;1.17;;
41881;SDS011;27562;47.524;12.404;2023-08-08T00:28:37;2.03;;;1.20;;
41881;SDS011;27562;47.524;12.404;2023-08-08T00:31:03;3.40;;;1.48;;
41881;SDS011;27562;47.524;12.404;2023-08-08T00:33:28;2.85;;;1.23;;
41881;SDS011;27562;47.524;12.404;2023-08-08T00:35:54;3.45;;;1.38;;
41881;SDS011;27562;47.524;12.404;2023-08-08T00:38:20;2.28;;;1.10;;
41881;SDS011;27562;47.524;12.404;2023-08-08T00:40:45;2.00;;;1.17;;
41881;SDS011;27562;47.524;12.404;2023-08-08T00:43:14;4.05;;;1.00;;
41881;SDS011;27562;47.524;12.404;2023-08-08T00:45:41;2.25;;;1.17;;
41881;SDS011;27562;47.524;12.404;2023-08-08T00:48:07;3.72;;;1.10;;
41881;SDS011;27562;47.524;12.404;2023-08-08T00:50:34;2.22;;;1.25;;
41881;SDS011;27562;47.524;12.404;2023-08-08T00:53:01;1.90;;;1.10;;
41881;SDS011;27562;47.524;12.404;2023-08-08T00:55:28;4.72;;;1.27;;
41881;SDS011;27562;47.524;12.404;2023-08-08T00:57:54;2.53;;;1.10;;
41881;SDS011;27562;47.524;12.404;2023-08-08T01:00:20;1.83;;;1.10;;
41881;SDS011;27562;47.524;12.404;2023-08-08T01:02:45;1.85;;;1.10;;
41881;SDS011;27562;47.524;12.404;2023-08-08T01:05:11;2.50;;;1.38;;
41881;SDS011;27562;47.524;12.404;2023-08-08T01:07:54;2.13;;;1.20;;
41881;SDS011;27562;47.524;12.404;2023-08-08T01:10:31;4.65;;;1.10;;
41881;SDS011;27562;47.524;12.404;2023-08-08T01:13:05;2.30;;;1.20;;
41881;SDS011;27562;47.524;12.404;2023-08-08T01:15:36;2.30;;;1.23;;
41881;SDS011;27562;47.524;12.404;2023-08-08T01:18:03;1.90;;;1.00;;
41881;SDS011;27562;47.524;12.404;2023-08-08T01:20:31;2.70;;;1.17;;
41881;SDS011;27562;47.524;12.404;2023-08-08T01:23:08;2.97;;;1.30;;
41881;SDS011;27562;47.524;12.404;2023-08-08T01:25:38;3.00;;;1.08;;
41881;SDS011;27562;47.524;12.404;2023-08-08T01:28:05;3.20;;;1.40;;
41881;SDS011;27562;47.524;12.404;2023-08-08T01:30:32;2.00;;;1.08;;
41881;SDS011;27562;47.524;12.404;2023-08-08T01:32:58;2.30;;;1.08;;
41881;SDS011;27562;47.524;12.404;2023-08-08T01:35:23;2.65;;;1.27;;
41881;SDS011;27562;47.524;12.404;2023-08-08T01:37:54;1.90;;;1.00;;
41881;SDS011;27562;47.524;12.404;2023-08-08T01:40:29;2.20;;;1.00;;
41881;SDS011;27562;47.524;12.404;2023-08-08T01:42:56;2.13;;;1.17;;
41881;SDS011;27562;47.524;12.404;2023-08-08T01:45:23;2.33;;;1.23;;
41881;SDS011;27562;47.524;12.404;2023-08-08T01:47:52;2.00;;;1.25;;
41881;SDS011;27562;47.524;12.404;2023-08-08T01:50:19;2.55;;;1.20;;
41881;SDS011;27562;47.524;12.404;2023-08-08T01:52:46;1.73;;;1.17;;
41881;SDS011;27562;47.524;12.404;2023-08-08T01:55:12;2.08;;;1.30;;
41881;SDS011;27562;47.524;12.404;2023-08-08T01:57:38;2.45;;;1.30;;
41881;SDS011;27562;47.524;12.404;2023-08-08T02:00:05;2.65;;;1.20;;
41881;SDS011;27562;47.524;12.404;2023-08-08T02:02:31;2.97;;;1.20;;
41881;SDS011;27562;47.524;12.404;2023-08-08T02:04:57;2.35;;;1.23;;
41881;SDS011;27562;47.524;12.404;2023-08-08T02:07:23;2.22;;;1.40;;
41881;SDS011;27562;47.524;12.404;2023-08-08T02:09:48;2.67;;;1.70;;
41881;SDS011;27562;47.524;12.404;2023-08-08T02:12:15;6.10;;;3.40;;
41881;SDS011;27562;47.524;12.404;2023-08-08T02:14:41;3.60;;;2.78;;
41881;SDS011;27562;47.524;12.404;2023-08-08T02:17:07;3.90;;;3.03;;
41881;SDS011;27562;47.524;12.404;2023-08-08T02:19:33;3.78;;;2.80;;
41881;SDS011;27562;47.524;12.404;2023-08-08T02:21:58;5.68;;;4.00;;
41881;SDS011;27562;47.524;12.404;2023-08-08T02:24:24;3.67;;;2.50;;
41881;SDS011;27562;47.524;12.404;2023-08-08T02:26:50;3.25;;;2.20;;
41881;SDS011;27562;47.524;12.404;2023-08-08T02:29:15;3.25;;;1.92;;
41881;SDS011;27562;47.524;12.404;2023-08-08T02:31:41;3.80;;;2.42;;
41881;SDS011;27562;47.524;12.404;2023-08-08T02:34:07;3.28;;;2.50;;
41881;SDS011;27562;47.524;12.404;2023-08-08T02:36:32;4.50;;;2.33;;
41881;SDS011;27562;47.524;12.404;2023-08-08T02:38:58;2.55;;;1.70;;
41881;SDS011;27562;47.524;12.404;2023-08-08T02:41:24;2.97;;;1.73;;
41881;SDS011;27562;47.524;12.404;2023-08-08T02:43:49;2.88;;;1.33;;
41881;SDS011;27562;47.524;12.404;2023-08-08T02:46:15;3.15;;;1.23;;
41881;SDS011;27562;47.524;12.404;2023-08-08T02:48:41;2.33;;;1.20;;
41881;SDS011;27562;47.524;12.404;2023-08-08T02:51:06;3.90;;;1.10;;
41881;SDS011;27562;47.524;12.404;2023-08-08T02:53:32;1.88;;;1.02;;
41881;SDS011;27562;47.524;12.404;2023-08-08T02:55:58;1.83;;;0.98;;
41881;SDS011;27562;47.524;12.404;2023-08-08T02:58:23;1.60;;;0.85;;
41881;SDS011;27562;47.524;12.404;2023-08-08T03:00:49;2.25;;;1.00;;
41881;SDS011;27562;47.524;12.404;2023-08-08T03:03:15;1.63;;;1.00;;
41881;SDS011;27562;47.524;12.404;2023-08-08T03:05:40;2.80;;;1.10;;
41881;SDS011;27562;47.524;12.404;2023-08-08T03:08:06;2.42;;;1.45;;
41881;SDS011;27562;47.524;12.404;2023-08-08T03:10:32;3.83;;;1.50;;
41881;SDS011;27562;47.524;12.404;2023-08-08T03:12:57;2.65;;;1.55;;
41881;SDS011;27562;47.524;12.404;2023-08-08T03:15:23;3.55;;;1.42;;
41881;SDS011;27562;47.524;12.404;2023-08-08T03:17:49;2.85;;;1.58;;
41881;SDS011;27562;47.524;12.404;2023-08-08T03:20:14;3.50;;;1.50;;
41881;SDS011;27562;47.524;12.404;2023-08-08T03:22:40;4.78;;;2.35;;
41881;SDS011;27562;47.524;12.404;2023-08-08T03:25:06;5.68;;;2.50;;
41881;SDS011;27562;47.524;12.404;2023-08-08T03:27:32;3.92;;;2.30;;
41881;SDS011;27562;47.524;12.404;2023-08-08T03:29:58;3.70;;;2.00;;
41881;SDS011;27562;47.524;12.404;2023-08-08T03:32:23;3.83;;;1.70;;
41881;SDS011;27562;47.524;12.404;2023-08-08T03:34:49;2.47;;;1.60;;
41881;SDS011;27562;47.524;12.404;2023-08-08T03:37:15;2.05;;;1.23;;
41881;SDS011;27562;47.524;12.404;2023-08-08T03:39:40;2.92;;;1.25;;
41881;SDS011;27562;47.524;12.404;2023-08-08T03:42:06;3.67;;;1.40;;
41881;SDS011;27562;47.524;12.404;2023-08-08T03:44:32;1.50;;;0.90;;
41881;SDS011;27562;47.524;12.404;2023-08-08T03:46:58;1.52;;;1.00;;
41881;SDS011;27562;47.524;12.404;2023-08-08T03:49:23;2.33;;;1.35;;
41881;SDS011;27562;47.524;12.404;2023-08-08T03:51:49;1.88;;;1.10;;
41881;SDS011;27562;47.524;12.404;2023-08-08T03:54:15;2.20;;;1.27;;
41881;SDS011;27562;47.524;12.404;2023-08-08T03:56:41;2.83;;;1.20;;
41881;SDS011;27562;47.524;12.404;2023-08-08T03:59:07;2.72;;;1.40;;
41881;SDS011;27562;47.524;12.404;2023-08-08T04:01:33;2.47;;;1.20;;
41881;SDS011;27562;47.524;12.404;2023-08-08T04:03:58;2.00;;;1.20;;
41881;SDS011;27562;47.524;12.404;2023-08-08T04:06:24;2.55;;;1.33;;
41881;SDS011;27562;47.524;12.404;2023-08-08T04:08:50;2.22;;;1.40;;
41881;SDS011;27562;47.524;12.404;2023-08-08T04:11:16;2.83;;;1.40;;
41881;SDS011;27562;47.524;12.404;2023-08-08T04:13:41;2.83;;;1.60;;
41881;SDS011;27562;47.524;12.404;2023-08-08T04:16:07;2.58;;;1.55;;
41881;SDS011;27562;47.524;12.404;2023-08-08T04:18:33;2.25;;;1.38;;
41881;SDS011;27562;47.524;12.404;2023-08-08T04:20:58;2.78;;;1.50;;
41881;SDS011;27562;47.524;12.404;2023-08-08T04:23:24;3.40;;;1.60;;
41881;SDS011;27562;47.524;12.404;2023-08-08T04:25:51;2.35;;;1.30;;
41881;SDS011;27562;47.524;12.404;2023-08-08T04:28:17;2.08;;;1.25;;
41881;SDS011;27562;47.524;12.404;2023-08-08T04:30:43;1.90;;;1.27;;
41881;SDS011;27562;47.524;12.404;2023-08-08T04:33:09;3.30;;;1.33;;
41881;SDS011;27562;47.524;12.404;2023-08-08T04:35:34;3.10;;;1.48;;
41881;SDS011;27562;47.524;12.404;2023-08-08T04:38:00;2.92;;;1.80;;
41881;SDS011;27562;47.524;12.404;2023-08-08T04:40:26;4.75;;;2.47;;
41881;SDS011;27562;47.524;12.404;2023-08-08T04:42:52;6.72;;;3.47;;
41881;SDS011;27562;47.524;12.404;2023-08-08T04:45:18;4.25;;;2.80;;
41881;SDS011;27562;47.524;12.404;2023-08-08T04:47:45;4.63;;;2.67;;
41881;SDS011;27562;47.524;12.404;2023-08-08T04:50:11;5.10;;;2.90;;
41881;SDS011;27562;47.524;12.404;2023-08-08T04:52:37;5.82;;;3.75;;
41881;SDS011;27562;47.524;12.404;2023-08-08T04:55:03;10.23;;;6.03;;
41881;SDS011;27562;47.524;12.404;2023-08-08T04:57:30;11.02;;;5.88;;
41881;SDS011;27562;47.524;12.404;2023-08-08T04:59:56;7.03;;;4.32;;
41881;SDS011;27562;47.524;12.404;2023-08-08T05:02:22;6.30;;;2.85;;
41881;SDS011;27562;47.524;12.404;2023-08-08T05:04:47;3.63;;;2.15;;
41881;SDS011;27562;47.524;12.404;2023-08-08T05:07:15;3.00;;;1.55;;
41881;SDS011;27562;47.524;12.404;2023-08-08T05:09:40;2.50;;;1.30;;
41881;SDS011;27562;47.524;12.404;2023-08-08T05:12:06;3.08;;;1.30;;
41881;SDS011;27562;47.524;12.404;2023-08-08T05:14:32;4.75;;;1.83;;
41881;SDS011;27562;47.524;12.404;2023-08-08T05:16:58;4.15;;;1.98;;
41881;SDS011;27562;47.524;12.404;2023-08-08T05:19:23;4.70;;;1.95;;
41881;SDS011;27562;47.524;12.404;2023-08-08T05:21:50;3.35;;;1.60;;
41881;SDS011;27562;47.524;12.404;2023-08-08T05:24:15;3.45;;;1.80;;
41881;SDS011;27562;47.524;12.404;2023-08-08T05:26:41;3.00;;;1.65;;
41881;SDS011;27562;47.524;12.404;2023-08-08T05:29:07;4.10;;;1.50;;
41881;SDS011;27562;47.524;12.404;2023-08-08T05:31:32;1.90;;;1.25;;
41881;SDS011;27562;47.524;12.404;2023-08-08T05:33:58;2.28;;;1.30;;
41881;SDS011;27562;47.524;12.404;2023-08-08T05:36:24;6.68;;;1.42;;
41881;SDS011;27562;47.524;12.404;2023-08-08T05:38:49;4.35;;;1.23;;
41881;SDS011;27562;47.524;12.404;2023-08-08T05:41:15;2.20;;;1.10;;
41881;SDS011;27562;47.524;12.404;2023-08-08T05:43:41;2.72;;;1.30;;
41881;SDS011;27562;47.524;12.404;2023-08-08T05:46:07;1.83;;;1.00;;
41881;SDS011;27562;47.524;12.404;2023-08-08T05:48:33;2.10;;;1.10;;
41881;SDS011;27562;47.524;12.404;2023-08-08T05:50:58;2.08;;;1.10;;
41881;SDS011;27562;47.524;12.404;2023-08-08T05:53:24;1.52;;;1.00;;
41881;SDS011;27562;47.524;12.404;2023-08-08T05:55:50;2.30;;;1.20;;
41881;SDS011;27562;47.524;12.404;2023-08-08T05:58:16;2.22;;;1.23;;
41881;SDS011;27562;47.524;12.404;2023-08-08T06:00:41;2.13;;;0.98;;
41881;SDS011;27562;47.524;12.404;2023-08-08T06:03:07;5.03;;;1.30;;
41881;SDS011;27562;47.524;12.404;2023-08-08T06:05:33;2.55;;;1.20;;
41881;SDS011;27562;47.524;12.404;2023-08-08T06:07:59;2.58;;;1.17;;
41881;SDS011;27562;47.524;12.404;2023-08-08T06:10:25;4.47;;;1.17;;
41881;SDS011;27562;47.524;12.404;2023-08-08T06:12:51;2.38;;;1.20;;
41881;SDS011;27562;47.524;12.404;2023-08-08T06:15:17;2.33;;;1.23;;
41881;SDS011;27562;47.524;12.404;2023-08-08T06:17:42;3.03;;;1.38;;
41881;SDS011;27562;47.524;12.404;2023-08-08T06:20:08;2.53;;;1.40;;
41881;SDS011;27562;47.524;12.404;2023-08-08T06:22:35;2.20;;;1.27;;
41881;SDS011;27562;47.524;12.404;2023-08-08T06:25:01;2.17;;;1.20;;
41881;SDS011;27562;47.524;12.404;2023-08-08T06:27:27;3.10;;;1.40;;
41881;SDS011;27562;47.524;12.404;2023-08-08T06:29:53;2.70;;;1.40;;
41881;SDS011;27562;47.524;12.404;2023-08-08T06:32:18;2.78;;;1.10;;
41881;SDS011;27562;47.524;12.404;2023-08-08T06:34:44;2.10;;;1.10;;
41881;SDS011;27562;47.524;12.404;2023-08-08T06:37:10;2.63;;;1.27;;
41881;SDS011;27562;47.524;12.404;2023-08-08T06:39:35;2.55;;;1.23;;
41881;SDS011;27562;47.524;12.404;2023-08-08T06:42:03;2.53;;;1.40;;
41881;SDS011;27562;47.524;12.404;2023-08-08T06:44:31;3.63;;;1.30;;
41881;SDS011;27562;47.524;12.404;2023-08-08T06:46:57;2.95;;;1.50;;
41881;SDS011;27562;47.524;12.404;2023-08-08T06:49:23;2.70;;;1.20;;
41881;SDS011;27562;47.524;12.404;2023-08-08T06:51:48;2.08;;;1.20;;
41881;SDS011;27562;47.524;12.404;2023-08-08T06:54:14;2.20;;;1.23;;
41881;SDS011;27562;47.524;12.404;2023-08-08T06:56:40;2.60;;;1.13;;
41881;SDS011;27562;47.524;12.404;2023-08-08T06:59:06;1.75;;;1.02;;
41881;SDS011;27562;47.524;12.404;2023-08-08T07:01:31;3.17;;;1.00;;
41881;SDS011;27562;47.524;12.404;2023-08-08T07:03:57;1.77;;;1.05;;
41881;SDS011;27562;47.524;12.404;2023-08-08T07:06:23;3.17;;;1.40;;
41881;SDS011;27562;47.524;12.404;2023-08-08T07:08:49;1.67;;;1.10;;
41881;SDS011;27562;47.524;12.404;2023-08-08T07:11:14;2.63;;;1.50;;
41881;SDS011;27562;47.524;12.404;2023-08-08T07:13:40;3.85;;;2.55;;
41881;SDS011;27562;47.524;12.404;2023-08-08T07:16:05;4.40;;;3.47;;
41881;SDS011;27562;47.524;12.404;2023-08-08T07:18:31;5.70;;;3.47;;
41881;SDS011;27562;47.524;12.404;2023-08-08T07:20:57;7.50;;;3.72;;
41881;SDS011;27562;47.524;12.404;2023-08-08T07:23:23;5.03;;;3.90;;
41881;SDS011;27562;47.524;12.404;2023-08-08T07:25:48;7.40;;;3.63;;
41881;SDS011;27562;47.524;12.404;2023-08-08T07:28:14;4.68;;;3.67;;
41881;SDS011;27562;47.524;12.404;2023-08-08T07:30:40;7.35;;;3.38;;
41881;SDS011;27562;47.524;12.404;2023-08-08T07:33:07;5.35;;;3.88;;
41881;SDS011;27562;47.524;12.404;2023-08-08T07:35:34;5.45;;;3.28;;
41881;SDS011;27562;47.524;12.404;2023-08-08T07:37:59;5.72;;;3.30;;
41881;SDS011;27562;47.524;12.404;2023-08-08T07:40:25;6.20;;;3.20;;
41881;SDS011;27562;47.524;12.404;2023-08-08T07:42:51;4.13;;;3.00;;
41881;SDS011;27562;47.524;12.404;2023-08-08T07:45:16;4.70;;;3.13;;
41881;SDS011;27562;47.524;12.404;2023-08-08T07:47:42;4.03;;;3.10;;
41881;SDS011;27562;47.524;12.404;2023-08-08T07:50:08;3.78;;;2.78;;
41881;SDS011;27562;47.524;12.404;2023-08-08T07:52:38;4.53;;;2.55;;
41881;SDS011;27562;47.524;12.404;2023-08-08T07:55:04;4.93;;;2.50;;
41881;SDS011;27562;47.524;12.404;2023-08-08T07:57:32;2.97;;;2.20;;
41881;SDS011;27562;47.524;12.404;2023-08-08T08:00:00;3.42;;;2.40;;
41881;SDS011;27562;47.524;12.404;2023-08-08T08:02:38;3.28;;;2.38;;
41881;SDS011;27562;47.524;12.404;2023-08-08T08:05:08;2.78;;;2.10;;
41881;SDS011;27562;47.524;12.404;2023-08-08T08:07:34;2.92;;;1.90;;
41881;SDS011;27562;47.524;12.404;2023-08-08T08:10:05;3.30;;;1.85;;
41881;SDS011;27562;47.524;12.404;2023-08-08T08:14:58;3.60;;;1.65;;
41881;SDS011;27562;47.524;12.404;2023-08-08T08:17:24;2.97;;;1.65;;
41881;SDS011;27562;47.524;12.404;2023-08-08T08:19:50;3.25;;;1.60;;
41881;SDS011;27562;47.524;12.404;2023-08-08T08:22:16;3.70;;;2.08;;
41881;SDS011;27562;47.524;12.404;2023-08-08T08:24:42;4.80;;;2.20;;
41881;SDS011;27562;47.524;12.404;2023-08-08T08:27:08;2.65;;;1.80;;
41881;SDS011;27562;47.524;12.404;2023-08-08T08:29:34;2.97;;;2.03;;
41881;SDS011;27562;47.524;12.404;2023-08-08T08:31:59;10.65;;;2.33;;
41881;SDS011;27562;47.524;12.404;2023-08-08T08:34:25;3.30;;;1.83;;
41881;SDS011;27562;47.524;12.404;2023-08-08T08:36:51;5.13;;;2.70;;
41881;SDS011;27562;47.524;12.404;2023-08-08T08:39:16;3.15;;;1.80;;
41881;SDS011;27562;47.524;12.404;2023-08-08T08:41:42;3.38;;;1.83;;
41881;SDS011;27562;47.524;12.404;2023-08-08T08:46:41;2.90;;;1.45;;
41881;SDS011;27562;47.524;12.404;2023-08-08T08:49:07;5.90;;;1.80;;
41881;SDS011;27562;47.524;12.404;2023-08-08T08:51:35;1.77;;;1.20;;
41881;SDS011;27562;47.524;12.404;2023-08-08T08:54:01;1.75;;;0.98;;
41881;SDS011;27562;47.524;12.404;2023-08-08T08:56:27;3.30;;;1.27;;
41881;SDS011;27562;47.524;12.404;2023-08-08T08:58:53;2.33;;;1.30;;
41881;SDS011;27562;47.524;12.404;2023-08-08T09:01:19;2.22;;;1.10;;
41881;SDS011;27562;47.524;12.404;2023-08-08T09:03:48;2.65;;;1.27;;
41881;SDS011;27562;47.524;12.404;2023-08-08T09:06:14;1.85;;;0.90;;
41881;SDS011;27562;47.524;12.404;2023-08-08T09:08:41;2.78;;;1.30;;
41881;SDS011;27562;47.524;12.404;2023-08-08T09:11:07;2.40;;;1.40;;
41881;SDS011;27562;47.524;12.404;2023-08-08T09:13:36;3.20;;;1.10;;
41881;SDS011;27562;47.524;12.404;2023-08-08T09:16:04;2.53;;;1.17;;
41881;SDS011;27562;47.524;12.404;2023-08-08T09:18:37;3.03;;;1.15;;
41881;SDS011;27562;47.524;12.404;2023-08-08T09:21:03;2.30;;;1.17;;
41881;SDS011;27562;47.524;12.404;2023-08-08T09:23:32;2.10;;;1.00;;
41881;SDS011;27562;47.524;12.404;2023-08-08T09:25:57;1.63;;;0.90;;
41881;SDS011;27562;47.524;12.404;2023-08-08T09:28:23;1.67;;;0.90;;
41881;SDS011;27562;47.524;12.404;2023-08-08T09:30:50;2.35;;;1.15;;
41881;SDS011;27562;47.524;12.404;2023-08-08T09:33:16;2.00;;;0.88;;
41881;SDS011;27562;47.524;12.404;2023-08-08T09:35:42;2.92;;;0.82;;
41881;SDS011;27562;47.524;12.404;2023-08-08T09:38:09;3.50;;;1.20;;
41881;SDS011;27562;47.524;12.404;2023-08-08T09:40:34;2.72;;;1.30;;
41881;SDS011;27562;47.524;12.404;2023-08-08T09:43:01;2.03;;;1.10;;
41881;SDS011;27562;47.524;12.404;2023-08-08T09:45:34;2.88;;;1.30;;
41881;SDS011;27562;47.524;12.404;2023-08-08T09:48:02;3.75;;;1.30;;
41881;SDS011;27562;47.524;12.404;2023-08-08T09:50:28;2.83;;;1.42;;
41881;SDS011;27562;47.524;12.404;2023-08-08T09:52:54;2.42;;;1.15;;
41881;SDS011;27562;47.524;12.404;2023-08-08T09:55:21;2.72;;;1.10;;
41881;SDS011;27562;47.524;12.404;2023-08-08T09:57:48;4.30;;;1.35;;
41881;SDS011;27562;47.524;12.404;2023-08-08T10:00:14;2.40;;;1.20;;
41881;SDS011;27562;47.524;12.404;2023-08-08T10:02:46;3.50;;;1.38;;
41881;SDS011;27562;47.524;12.404;2023-08-08T10:05:12;2.83;;;1.30;;
41881;SDS011;27562;47.524;12.404;2023-08-08T10:07:43;2.72;;;1.00;;
41881;SDS011;27562;47.524;12.404;2023-08-08T10:10:09;1.58;;;0.88;;
41881;SDS011;27562;47.524;12.404;2023-08-08T10:12:38;2.20;;;1.10;;
41881;SDS011;27562;47.524;12.404;2023-08-08T10:15:08;2.42;;;1.27;;
41881;SDS011;27562;47.524;12.404;2023-08-08T10:17:35;2.00;;;1.27;;
41881;SDS011;27562;47.524;12.404;2023-08-08T10:20:02;1.60;;;0.90;;
41881;SDS011;27562;47.524;12.404;2023-08-08T10:22:36;2.00;;;1.00;;
41881;SDS011;27562;47.524;12.404;2023-08-08T10:25:06;2.50;;;0.90;;
41881;SDS011;27562;47.524;12.404;2023-08-08T10:27:33;2.20;;;1.15;;
41881;SDS011;27562;47.524;12.404;2023-08-08T10:30:07;3.17;;;1.02;;
41881;SDS011;27562;47.524;12.404;2023-08-08T10:32:45;2.42;;;1.10;;
41881;SDS011;27562;47.524;12.404;2023-08-08T10:35:14;2.97;;;1.10;;
41881;SDS011;27562;47.524;12.404;2023-08-08T10:37:40;1.85;;;0.98;;
41881;SDS011;27562;47.524;12.404;2023-08-08T10:40:18;2.10;;;1.00;;
41881;SDS011;27562;47.524;12.404;2023-08-08T10:42:45;1.38;;;0.80;;
41881;SDS011;27562;47.524;12.404;2023-08-08T10:45:12;1.95;;;1.10;;
41881;SDS011;27562;47.524;12.404;2023-08-08T10:47:40;2.80;;;1.00;;
41881;SDS011;27562;47.524;12.404;2023-08-08T10:50:09;1.80;;;0.98;;
41881;SDS011;27562;47.524;12.404;2023-08-08T10:55:21;1.98;;;1.05;;
41881;SDS011;27562;47.524;12.404;2023-08-08T10:57:54;1.75;;;0.98;;
41881;SDS011;27562;47.524;12.404;2023-08-08T11:00:26;2.50;;;1.10;;
41881;SDS011;27562;47.524;12.404;2023-08-08T11:02:54;2.40;;;1.30;;
41881;SDS011;27562;47.524;12.404;2023-08-08T11:05:21;2.20;;;0.95;;
41881;SDS011;27562;47.524;12.404;2023-08-08T11:07:47;1.83;;;0.90;;
41881;SDS011;27562;47.524;12.404;2023-08-08T11:10:13;2.38;;;0.90;;
41881;SDS011;27562;47.524;12.404;2023-08-08T11:12:39;1.92;;;1.15;;
41881;SDS011;27562;47.524;12.404;2023-08-08T11:15:05;1.67;;;0.70;;
41881;SDS011;27562;47.524;12.404;2023-08-08T11:17:32;2.78;;;1.00;;
41881;SDS011;27562;47.524;12.404;2023-08-08T11:19:58;2.17;;;0.90;;
41881;SDS011;27562;47.524;12.404;2023-08-08T11:22:23;2.13;;;0.93;;
41881;SDS011;27562;47.524;12.404;2023-08-08T11:24:49;1.98;;;0.82;;
41881;SDS011;27562;47.524;12.404;2023-08-08T11:27:16;1.65;;;0.70;;
41881;SDS011;27562;47.524;12.404;2023-08-08T11:29:50;2.00;;;0.80;;
41881;SDS011;27562;47.524;12.404;2023-08-08T11:32:16;2.17;;;1.25;;
41881;SDS011;27562;47.524;12.404;2023-08-08T11:34:42;2.05;;;1.05;;
41881;SDS011;27562;47.524;12.404;2023-08-08T11:37:11;2.42;;;1.00;;
41881;SDS011;27562;47.524;12.404;2023-08-08T11:39:40;2.00;;;1.08;;
41881;SDS011;27562;47.524;12.404;2023-08-08T11:42:06;2.30;;;0.90;;
41881;SDS011;27562;47.524;12.404;2023-08-08T11:44:35;1.42;;;0.80;;
41881;SDS011;27562;47.524;12.404;2023-08-08T11:47:01;2.33;;;1.10;;
41881;SDS011;27562;47.524;12.404;2023-08-08T11:49:27;2.25;;;0.90;;
41881;SDS011;27562;47.524;12.404;2023-08-08T11:51:56;3.92;;;0.98;;
41881;SDS011;27562;47.524;12.404;2023-08-08T11:54:22;1.80;;;0.90;;
41881;SDS011;27562;47.524;12.404;2023-08-08T11:56:47;2.13;;;1.00;;
41881;SDS011;27562;47.524;12.404;2023-08-08T11:59:13;1.55;;;0.73;;
41881;SDS011;27562;47.524;12.404;2023-08-08T12:01:39;1.75;;;0.73;;
41881;SDS011;27562;47.524;12.404;2023-08-08T12:04:08;1.20;;;0.80;;
41881;SDS011;27562;47.524;12.404;2023-08-08T12:06:36;1.60;;;0.90;;
41881;SDS011;27562;47.524;12.404;2023-08-08T12:09:05;1.38;;;0.80;;
41881;SDS011;27562;47.524;12.404;2023-08-08T12:11:34;1.75;;;0.85;;
41881;SDS011;27562;47.524;12.404;2023-08-08T12:14:01;1.48;;;0.85;;
41881;SDS011;27562;47.524;12.404;2023-08-08T12:16:30;1.65;;;0.98;;
41881;SDS011;27562;47.524;12.404;2023-08-08T12:18:56;2.22;;;1.00;;
41881;SDS011;27562;47.524;12.404;2023-08-08T12:21:21;2.72;;;0.90;;
41881;SDS011;27562;47.524;12.404;2023-08-08T12:23:47;2.17;;;0.88;;
41881;SDS011;27562;47.524;12.404;2023-08-08T12:26:12;2.22;;;1.08;;
41881;SDS011;27562;47.524;12.404;2023-08-08T12:28:38;2.13;;;0.90;;
41881;SDS011;27562;47.524;12.404;2023-08-08T12:31:04;2.55;;;1.10;;
41881;SDS011;27562;47.524;12.404;2023-08-08T12:33:29;1.50;;;0.75;;
41881;SDS011;27562;47.524;12.404;2023-08-08T12:35:55;2.15;;;0.77;;
41881;SDS011;27562;47.524;12.404;2023-08-08T12:38:21;1.83;;;0.82;;
41881;SDS011;27562;47.524;12.404;2023-08-08T12:40:47;3.40;;;1.00;;
41881;SDS011;27562;47.524;12.404;2023-08-08T12:43:13;1.70;;;0.90;;
41881;SDS011;27562;47.524;12.404;2023-08-08T12:45:42;3.67;;;1.17;;
41881;SDS011;27562;47.524;12.404;2023-08-08T12:48:10;3.30;;;0.98;;
41881;SDS011;27562;47.524;12.404;2023-08-08T12:50:36;1.75;;;0.90;;
41881;SDS011;27562;47.524;12.404;2023-08-08T12:53:02;1.98;;;0.90;;
41881;SDS011;27562;47.524;12.404;2023-08-08T12:55:29;2.45;;;1.02;;
41881;SDS011;27562;47.524;12.404;2023-08-08T12:57:55;1.98;;;1.10;;
41881;SDS011;27562;47.524;12.404;2023-08-08T13:00:21;2.65;;;1.10;;
41881;SDS011;27562;47.524;12.404;2023-08-08T13:02:47;1.45;;;0.75;;
41881;SDS011;27562;47.524;12.404;2023-08-08T13:05:12;1.52;;;0.80;;
41881;SDS011;27562;47.524;12.404;2023-08-08T13:07:38;2.30;;;1.10;;
41881;SDS011;27562;47.524;12.404;2023-08-08T13:10:04;3.15;;;1.20;;
41881;SDS011;27562;47.524;12.404;2023-08-08T13:12:30;2.35;;;1.25;;
41881;SDS011;27562;47.524;12.404;2023-08-08T13:14:56;2.22;;;0.95;;
41881;SDS011;27562;47.524;12.404;2023-08-08T13:17:22;2.53;;;1.10;;
41881;SDS011;27562;47.524;12.404;2023-08-08T13:19:47;1.95;;;0.98;;
41881;SDS011;27562;47.524;12.404;2023-08-08T13:22:13;1.77;;;1.10;;
41881;SDS011;27562;47.524;12.404;2023-08-08T13:24:39;2.03;;;1.00;;
41881;SDS011;27562;47.524;12.404;2023-08-08T13:27:04;12.57;;;3.45;;
41881;SDS011;27562;47.524;12.404;2023-08-08T13:29:30;3.15;;;1.23;;
41881;SDS011;27562;47.524;12.404;2023-08-08T13:31:56;1.95;;;1.10;;
41881;SDS011;27562;47.524;12.404;2023-08-08T13:34:22;1.83;;;0.80;;
41881;SDS011;27562;47.524;12.404;2023-08-08T13:36:47;2.25;;;0.98;;
41881;SDS011;27562;47.524;12.404;2023-08-08T13:39:13;3.45;;;0.93;;
41881;SDS011;27562;47.524;12.404;2023-08-08T13:41:39;2.53;;;0.82;;
41881;SDS011;27562;47.524;12.404;2023-08-08T13:44:04;2.58;;;1.00;;
41881;SDS011;27562;47.524;12.404;2023-08-08T13:46:30;3.08;;;1.00;;
41881;SDS011;27562;47.524;12.404;2023-08-08T13:48:56;2.08;;;1.13;;
41881;SDS011;27562;47.524;12.404;2023-08-08T13:51:21;2.70;;;1.02;;
41881;SDS011;27562;47.524;12.404;2023-08-08T13:53:47;1.77;;;0.80;;
41881;SDS011;27562;47.524;12.404;2023-08-08T13:56:16;2.47;;;1.05;;
41881;SDS011;27562;47.524;12.404;2023-08-08T13:58:42;2.55;;;1.10;;
41881;SDS011;27562;47.524;12.404;2023-08-08T14:01:08;2.15;;;1.00;;
41881;SDS011;27562;47.524;12.404;2023-08-08T14:03:34;3.45;;;1.17;;
41881;SDS011;27562;47.524;12.404;2023-08-08T14:05:59;2.03;;;1.05;;
41881;SDS011;27562;47.524;12.404;2023-08-08T14:08:25;2.58;;;1.10;;
41881;SDS011;27562;47.524;12.404;2023-08-08T14:10:51;1.83;;;0.90;;
41881;SDS011;27562;47.524;12.404;2023-08-08T14:13:16;1.50;;;0.93;;
41881;SDS011;27562;47.524;12.404;2023-08-08T14:15:44;2.28;;;1.10;;
41881;SDS011;27562;47.524;12.404;2023-08-08T14:18:10;2.40;;;1.13;;
41881;SDS011;27562;47.524;12.404;2023-08-08T14:20:36;1.88;;;1.10;;
41881;SDS011;27562;47.524;12.404;2023-08-08T14:23:02;2.10;;;1.00;;
41881;SDS011;27562;47.524;12.404;2023-08-08T14:25:28;2.88;;;1.05;;
41881;SDS011;27562;47.524;12.404;2023-08-08T14:27:54;2.05;;;1.00;;
41881;SDS011;27562;47.524;12.404;2023-08-08T14:30:21;2.83;;;1.00;;
41881;SDS011;27562;47.524;12.404;2023-08-08T14:32:47;1.90;;;1.10;;
41881;SDS011;27562;47.524;12.404;2023-08-08T14:35:13;2.60;;;1.10;;
41881;SDS011;27562;47.524;12.404;2023-08-08T14:37:39;3.58;;;1.10;;